Time;durP1;ratioP1;P1;durP2;ratioP2;P2;SDS_P1;SDS_P2;PMS_P1;PMS_P2;Temp;Humidity;BMP_temperature;BMP_pressure;BME280_temperature;BME280_humidity;BME280_pressure;Samples;Min_cycle;Max_cycle;Signal;HPM_P1;HPM_P2
2021/12/03 00:00:19;;;;;;;;;;;3.90;93.60;;;;;;5089479;28;19920;-67
2021/12/03 00:02:45;;;;;;;;;;;3.90;93.60;;;;;;5081721;28;19909;-68
2021/12/03 00:05:11;;;;;;;;;;;4.00;93.60;;;;;;5086800;28;19916;-67
2021/12/03 00:07:39;;;;;;;;;;;3.90;93.60;;;;;;5101540;28;19908;-67
2021/12/03 00:10:07;;;;;;;;;;;3.90;93.60;;;;;;5092308;28;19916;-67
2021/12/03 00:12:32;;;;;;;;;;;3.90;93.60;;;;;;5101112;28;19965;-68
2021/12/03 00:14:58;;;;;;;;;;;4.00;93.70;;;;;;5086222;28;19920;-67
2021/12/03 00:17:23;;;;;;;;;;;4.00;93.60;;;;;;5075328;28;19909;-68
2021/12/03 00:19:49;;;;;;;;;;;3.90;93.70;;;;;;5090250;28;19908;-68
2021/12/03 00:22:14;;;;;;;;;;;3.90;93.70;;;;;;5093256;28;19916;-68
2021/12/03 00:24:40;;;;;;;;;;;3.90;93.70;;;;;;5086380;28;20442;-68
2021/12/03 00:27:06;;;;;;;;;;;3.90;93.70;;;;;;5089631;28;19916;-68
2021/12/03 00:29:32;;;;;;;;;;;4.00;93.70;;;;;;5094603;28;20470;-68
2021/12/03 00:31:57;;;;;;;;;;;3.90;93.70;;;;;;5093318;28;19934;-68
2021/12/03 00:34:23;;;;;;;;;;;3.90;93.70;;;;;;5089893;28;19966;-68
2021/12/03 00:36:50;;;;;;;;;;;3.90;93.80;;;;;;5086367;28;19912;-67
2021/12/03 00:39:15;;;;;;;;;;;4.00;93.70;;;;;;5095369;28;19995;-68
2021/12/03 00:41:46;;;;;;;;;;;4.00;93.70;;;;;;5087351;28;20051;-67
2021/12/03 00:44:13;;;;;;;;;;;4.00;93.70;;;;;;5089134;28;20365;-68
2021/12/03 00:46:38;;;;;;;;;;;4.00;93.70;;;;;;5087782;28;19919;-68
2021/12/03 00:49:04;;;;;;;;;;;3.90;93.70;;;;;;5088625;28;19908;-67
2021/12/03 00:51:29;;;;;;;;;;;3.90;93.70;;;;;;5085890;28;19912;-68
2021/12/03 00:53:55;;;;;;;;;;;3.90;93.70;;;;;;5097628;28;19930;-67
2021/12/03 00:56:20;;;;;;;;;;;3.90;93.70;;;;;;5092734;28;19961;-68
2021/12/03 00:58:46;;;;;;;;;;;3.90;93.70;;;;;;5075851;28;20392;-68
2021/12/03 01:01:12;;;;;;;;;;;3.90;93.70;;;;;;5092772;28;20015;-68
2021/12/03 01:03:38;;;;;;;;;;;3.90;93.70;;;;;;5099538;28;19944;-67
2021/12/03 01:06:04;;;;;;;;;;;3.90;93.70;;;;;;5093440;28;20499;-68
2021/12/03 01:08:31;;;;;;;;;;;3.90;93.70;;;;;;5092560;28;19916;-68
2021/12/03 01:10:57;;;;;;;;;;;3.90;93.70;;;;;;5100180;28;19912;-67
2021/12/03 01:13:23;;;;;;;;;;;3.90;93.70;;;;;;5091326;28;20454;-68
2021/12/03 01:15:48;;;;;;;;;;;3.90;93.60;;;;;;5092478;28;19908;-68
2021/12/03 01:18:14;;;;;;;;;;;3.90;93.60;;;;;;5106436;27;19935;-68
2021/12/03 01:20:41;;;;;;;;;;;3.80;93.60;;;;;;5094415;28;19914;-68
2021/12/03 01:23:07;;;;;;;;;;;3.90;93.60;;;;;;5093797;28;19924;-68
2021/12/03 01:25:33;;;;;;;;;;;3.80;93.60;;;;;;5099615;28;19915;-68
2021/12/03 01:28:00;;;;;;;;;;;3.80;93.70;;;;;;5091987;28;19974;-68
2021/12/03 01:30:26;;;;;;;;;;;3.80;93.70;;;;;;5097692;28;19913;-68
2021/12/03 01:32:52;;;;;;;;;;;3.90;93.60;;;;;;5094298;28;19908;-68
2021/12/03 01:35:18;;;;;;;;;;;3.90;93.60;;;;;;5093489;28;19973;-68
2021/12/03 01:37:44;;;;;;;;;;;3.90;93.60;;;;;;5092102;28;20297;-67
2021/12/03 01:40:11;;;;;;;;;;;3.90;93.70;;;;;;5093147;28;19912;-68
2021/12/03 01:42:38;;;;;;;;;;;3.90;93.60;;;;;;5094115;28;19908;-68
2021/12/03 01:45:07;;;;;;;;;;;3.80;93.70;;;;;;5094531;28;19923;-68
2021/12/03 01:47:32;;;;;;;;;;;3.90;93.60;;;;;;5088278;28;19912;-68
2021/12/03 01:49:58;;;;;;;;;;;3.80;93.70;;;;;;5087172;28;20404;-67
2021/12/03 01:52:23;;;;;;;;;;;3.90;93.70;;;;;;5092639;28;19917;-67
2021/12/03 01:54:49;;;;;;;;;;;3.90;93.70;;;;;;5081939;28;19912;-67
2021/12/03 01:57:14;;;;;;;;;;;3.90;93.70;;;;;;5086033;28;19908;-68
2021/12/03 01:59:40;;;;;;;;;;;3.90;93.70;;;;;;5087535;28;19947;-68
2021/12/03 02:02:06;;;;;;;;;;;3.90;93.70;;;;;;5091276;28;20009;-68
2021/12/03 02:04:31;;;;;;;;;;;3.90;93.70;;;;;;5088171;28;19982;-68
2021/12/03 02:06:57;;;;;;;;;;;3.90;93.60;;;;;;5100241;28;20315;-67
2021/12/03 02:09:22;;;;;;;;;;;3.90;93.70;;;;;;5091525;28;19916;-67
2021/12/03 02:11:48;;;;;;;;;;;3.90;93.70;;;;;;5077089;28;19936;-68
2021/12/03 02:14:13;;;;;;;;;;;3.90;93.70;;;;;;5092391;28;19919;-68
2021/12/03 02:16:40;;;;;;;;;;;3.90;93.70;;;;;;5099953;28;19981;-68
2021/12/03 02:19:05;;;;;;;;;;;3.90;93.70;;;;;;5089215;28;19912;-68
2021/12/03 02:21:31;;;;;;;;;;;3.80;93.80;;;;;;5097228;28;21684;-68
2021/12/03 02:23:56;;;;;;;;;;;3.80;93.80;;;;;;5088887;28;19923;-68
2021/12/03 02:26:22;;;;;;;;;;;3.90;93.70;;;;;;5086973;28;21430;-68
2021/12/03 02:28:49;;;;;;;;;;;3.90;93.80;;;;;;5089909;28;19944;-68
2021/12/03 02:31:16;;;;;;;;;;;3.90;93.80;;;;;;5088713;28;19920;-68
2021/12/03 02:33:42;;;;;;;;;;;3.90;93.70;;;;;;5109333;27;20290;-68
2021/12/03 02:36:08;;;;;;;;;;;3.80;93.80;;;;;;5088577;28;19942;-68
2021/12/03 02:38:33;;;;;;;;;;;3.80;93.80;;;;;;5103281;28;19908;-68
2021/12/03 02:40:59;;;;;;;;;;;3.80;93.90;;;;;;5088738;28;19919;-68
2021/12/03 02:43:25;;;;;;;;;;;3.80;93.90;;;;;;5093508;28;19939;-68
2021/12/03 02:45:51;;;;;;;;;;;3.80;93.90;;;;;;5088591;28;20380;-68
2021/12/03 02:48:16;;;;;;;;;;;3.80;93.90;;;;;;5104606;28;19916;-68
2021/12/03 02:50:42;;;;;;;;;;;3.80;93.90;;;;;;5090644;28;20369;-68
2021/12/03 02:53:08;;;;;;;;;;;3.80;93.90;;;;;;5100716;28;19912;-68
2021/12/03 02:55:34;;;;;;;;;;;3.80;93.90;;;;;;5088355;28;19965;-68
2021/12/03 02:57:59;;;;;;;;;;;3.80;93.90;;;;;;5097979;28;19912;-68
2021/12/03 03:00:25;;;;;;;;;;;3.90;93.90;;;;;;5100852;28;19908;-68
2021/12/03 03:02:51;;;;;;;;;;;3.90;93.90;;;;;;5091855;28;19908;-68
2021/12/03 03:05:17;;;;;;;;;;;3.90;93.80;;;;;;5100792;28;19915;-68
2021/12/03 03:07:43;;;;;;;;;;;3.90;93.90;;;;;;5092888;28;19908;-68
2021/12/03 03:10:10;;;;;;;;;;;3.80;93.90;;;;;;5100697;28;20466;-68
2021/12/03 03:12:39;;;;;;;;;;;3.80;93.90;;;;;;5091372;28;19908;-68
2021/12/03 03:15:05;;;;;;;;;;;3.80;93.90;;;;;;5103497;28;20585;-68
2021/12/03 03:17:31;;;;;;;;;;;3.80;93.90;;;;;;5088010;28;19916;-68
2021/12/03 03:19:57;;;;;;;;;;;3.80;94.00;;;;;;5094824;28;19965;-68
2021/12/03 03:22:23;;;;;;;;;;;3.80;94.00;;;;;;5088728;28;20369;-68
2021/12/03 03:24:53;;;;;;;;;;;3.80;94.00;;;;;;5088644;28;19919;-68
2021/12/03 03:27:20;;;;;;;;;;;3.80;94.10;;;;;;5094450;28;19911;-68
2021/12/03 03:29:46;;;;;;;;;;;3.80;94.20;;;;;;5106049;28;20280;-68
2021/12/03 03:32:11;;;;;;;;;;;3.80;94.30;;;;;;5086893;28;19988;-68
2021/12/03 03:34:37;;;;;;;;;;;3.70;94.10;;;;;;5096996;28;19920;-68
2021/12/03 03:37:03;;;;;;;;;;;3.70;94.20;;;;;;5090016;28;19951;-68
2021/12/03 03:39:28;;;;;;;;;;;3.70;94.30;;;;;;5095404;28;20524;-68
2021/12/03 03:41:54;;;;;;;;;;;3.70;94.30;;;;;;5096184;28;19911;-68
2021/12/03 03:44:19;;;;;;;;;;;3.70;94.20;;;;;;5089007;28;20008;-68
2021/12/03 03:46:46;;;;;;;;;;;3.70;94.30;;;;;;5104118;28;19915;-68
2021/12/03 03:49:13;;;;;;;;;;;3.70;94.30;;;;;;5090226;28;19912;-68
2021/12/03 03:51:38;;;;;;;;;;;3.70;94.30;;;;;;5130797;27;20623;-68
2021/12/03 03:54:04;;;;;;;;;;;3.70;94.30;;;;;;5089412;28;19919;-68
2021/12/03 03:56:30;;;;;;;;;;;3.70;94.30;;;;;;5088167;28;19908;-68
2021/12/03 03:58:56;;;;;;;;;;;3.70;94.60;;;;;;5088919;28;20408;-68
2021/12/03 04:01:22;;;;;;;;;;;3.70;94.40;;;;;;5103908;28;20422;-68
2021/12/03 04:03:47;;;;;;;;;;;3.70;94.30;;;;;;5088924;28;19908;-68
2021/12/03 04:06:17;;;;;;;;;;;3.70;94.30;;;;;;5087468;28;19923;-68
2021/12/03 04:08:44;;;;;;;;;;;3.70;94.30;;;;;;5088264;28;19916;-68
2021/12/03 04:11:10;;;;;;;;;;;3.70;94.40;;;;;;5091468;28;19913;-68
2021/12/03 04:13:35;;;;;;;;;;;3.70;94.40;;;;;;5102080;28;19916;-68
2021/12/03 04:16:01;;;;;;;;;;;3.70;94.30;;;;;;5087515;28;19919;-68
2021/12/03 04:18:27;;;;;;;;;;;3.70;94.40;;;;;;5099977;28;19907;-68
2021/12/03 04:20:53;;;;;;;;;;;3.70;94.40;;;;;;5092561;28;19922;-68
2021/12/03 04:23:20;;;;;;;;;;;3.70;94.30;;;;;;5097436;28;19908;-68
2021/12/03 04:25:47;;;;;;;;;;;3.70;94.30;;;;;;5085782;28;19948;-68
2021/12/03 04:28:12;;;;;;;;;;;3.70;94.30;;;;;;5111598;28;20367;-68
2021/12/03 04:30:38;;;;;;;;;;;3.70;94.30;;;;;;5090230;28;19912;-68
2021/12/03 04:33:03;;;;;;;;;;;3.70;94.30;;;;;;5093775;28;19912;-68
2021/12/03 04:35:30;;;;;;;;;;;3.70;94.40;;;;;;5092417;28;19934;-68
2021/12/03 04:37:55;;;;;;;;;;;3.70;94.30;;;;;;5091839;28;19913;-68
2021/12/03 04:40:21;;;;;;;;;;;3.70;94.40;;;;;;5093079;28;19914;-68
2021/12/03 04:42:47;;;;;;;;;;;3.70;94.40;;;;;;5091395;28;19986;-68
2021/12/03 04:45:15;;;;;;;;;;;3.70;94.40;;;;;;5088726;28;20004;-68
2021/12/03 04:47:40;;;;;;;;;;;3.80;94.40;;;;;;5087267;28;19995;-68
2021/12/03 04:50:07;;;;;;;;;;;3.70;94.30;;;;;;5091125;28;20034;-68
2021/12/03 04:52:33;;;;;;;;;;;3.70;94.40;;;;;;5097576;28;19920;-68
2021/12/03 04:54:58;;;;;;;;;;;3.80;94.40;;;;;;5092952;28;20539;-68
2021/12/03 04:57:24;;;;;;;;;;;3.80;94.40;;;;;;5095482;28;19912;-68
2021/12/03 04:59:49;;;;;;;;;;;3.80;94.40;;;;;;5105154;28;19955;-68
2021/12/03 05:02:16;;;;;;;;;;;3.80;94.40;;;;;;5090124;28;19915;-68
2021/12/03 05:04:42;;;;;;;;;;;3.80;94.40;;;;;;5106138;28;19923;-68
2021/12/03 05:09:37;;;;;;;;;;;3.70;94.40;;;;;;5091215;28;19908;-68
2021/12/03 05:12:03;;;;;;;;;;;3.80;94.40;;;;;;5090324;28;20383;-68
2021/12/03 05:14:29;;;;;;;;;;;3.80;94.40;;;;;;5108634;28;19912;-68
2021/12/03 05:16:55;;;;;;;;;;;3.70;94.40;;;;;;5089717;28;20053;-68
2021/12/03 05:19:20;;;;;;;;;;;3.80;94.40;;;;;;5096035;28;19919;-68
2021/12/03 05:21:47;;;;;;;;;;;3.70;94.30;;;;;;5089805;28;19911;-68
2021/12/03 05:24:12;;;;;;;;;;;3.80;94.40;;;;;;5075665;28;19924;-68
2021/12/03 05:26:39;;;;;;;;;;;3.80;94.40;;;;;;5089908;28;19916;-68
2021/12/03 05:29:05;;;;;;;;;;;3.80;94.40;;;;;;5092739;28;19951;-68
2021/12/03 05:31:31;;;;;;;;;;;3.80;94.40;;;;;;5086304;28;19916;-68
2021/12/03 05:33:57;;;;;;;;;;;3.80;94.40;;;;;;5095312;28;19920;-68
2021/12/03 05:36:23;;;;;;;;;;;3.80;94.40;;;;;;5089109;28;20292;-68
2021/12/03 05:38:48;;;;;;;;;;;3.70;94.30;;;;;;5087551;28;19920;-68
2021/12/03 05:41:14;;;;;;;;;;;3.80;94.40;;;;;;5096663;28;19920;-68
2021/12/03 05:43:39;;;;;;;;;;;3.80;94.30;;;;;;5090360;28;20023;-68
2021/12/03 05:46:05;;;;;;;;;;;3.80;94.30;;;;;;5092528;28;20277;-68
2021/12/03 05:48:30;;;;;;;;;;;3.80;94.30;;;;;;5093848;27;20381;-68
2021/12/03 05:50:56;;;;;;;;;;;3.80;94.40;;;;;;5095610;28;19919;-68
2021/12/03 05:53:22;;;;;;;;;;;3.80;94.40;;;;;;5089516;28;19912;-68
2021/12/03 05:55:47;;;;;;;;;;;3.80;94.40;;;;;;5105985;28;20436;-68
2021/12/03 05:58:15;;;;;;;;;;;3.80;94.30;;;;;;5093749;28;19919;-68
2021/12/03 06:00:41;;;;;;;;;;;3.80;94.40;;;;;;5100867;28;19916;-68
2021/12/03 06:03:07;;;;;;;;;;;3.80;94.40;;;;;;5104199;27;19916;-68
2021/12/03 06:05:33;;;;;;;;;;;3.80;94.30;;;;;;5098293;28;19926;-68
2021/12/03 06:07:58;;;;;;;;;;;3.80;94.30;;;;;;5093180;28;19930;-68
2021/12/03 06:10:24;;;;;;;;;;;3.80;94.40;;;;;;5092117;28;19912;-68
2021/12/03 06:12:50;;;;;;;;;;;3.80;94.40;;;;;;5092956;28;20016;-68
2021/12/03 06:15:16;;;;;;;;;;;3.80;94.30;;;;;;5087036;28;19931;-68
2021/12/03 06:17:41;;;;;;;;;;;3.80;94.30;;;;;;5103623;28;19908;-68
2021/12/03 06:20:09;;;;;;;;;;;3.80;94.30;;;;;;5085102;28;19918;-68
2021/12/03 06:22:34;;;;;;;;;;;3.80;94.30;;;;;;5100292;28;19912;-68
2021/12/03 06:25:01;;;;;;;;;;;3.80;94.30;;;;;;5090505;28;19916;-68
2021/12/03 06:27:29;;;;;;;;;;;3.80;94.30;;;;;;5105889;28;20006;-68
2021/12/03 06:29:55;;;;;;;;;;;3.80;94.30;;;;;;5090704;28;19912;-68
2021/12/03 06:32:20;;;;;;;;;;;3.80;94.30;;;;;;5125206;27;19957;-68
2021/12/03 06:34:46;;;;;;;;;;;3.80;94.30;;;;;;5092853;28;19955;-68
2021/12/03 06:37:12;;;;;;;;;;;3.80;94.30;;;;;;5099800;28;19920;-68
2021/12/03 06:39:37;;;;;;;;;;;3.80;94.30;;;;;;5090288;28;19915;-68
2021/12/03 06:42:03;;;;;;;;;;;3.90;94.40;;;;;;5097826;28;19917;-68
2021/12/03 06:44:29;;;;;;;;;;;3.90;94.30;;;;;;5089294;28;20294;-68
2021/12/03 06:46:54;;;;;;;;;;;3.90;94.40;;;;;;5090634;28;19930;-68
2021/12/03 06:49:21;;;;;;;;;;;3.90;94.30;;;;;;5090841;28;19919;-68
2021/12/03 06:51:47;;;;;;;;;;;3.90;94.40;;;;;;5087445;28;19916;-68
2021/12/03 06:54:14;;;;;;;;;;;3.90;94.40;;;;;;5093873;28;19958;-68
2021/12/03 06:56:48;;;;;;;;;;;3.90;94.30;;;;;;5089293;28;20426;-68
2021/12/03 06:59:15;;;;;;;;;;;3.80;94.30;;;;;;5105608;28;20007;-68
2021/12/03 07:01:40;;;;;;;;;;;3.80;94.40;;;;;;5092105;28;19912;-68
2021/12/03 07:04:06;;;;;;;;;;;3.90;94.40;;;;;;5086780;28;19928;-68
2021/12/03 07:06:31;;;;;;;;;;;3.90;94.40;;;;;;5093748;28;19911;-68
2021/12/03 07:08:57;;;;;;;;;;;3.90;94.40;;;;;;5089094;28;19931;-68
2021/12/03 07:11:22;;;;;;;;;;;3.90;94.40;;;;;;5087889;28;19961;-68
2021/12/03 07:13:48;;;;;;;;;;;3.90;94.40;;;;;;5090774;28;19954;-68
2021/12/03 07:16:14;;;;;;;;;;;3.90;94.30;;;;;;5091294;28;19922;-68
2021/12/03 07:18:39;;;;;;;;;;;3.90;94.40;;;;;;5097844;28;19920;-68
2021/12/03 07:21:05;;;;;;;;;;;3.90;94.40;;;;;;5094334;28;20336;-68
2021/12/03 07:23:31;;;;;;;;;;;3.90;94.40;;;;;;5093110;28;19920;-68
2021/12/03 07:25:59;;;;;;;;;;;3.90;94.40;;;;;;5088508;28;19916;-68
2021/12/03 07:28:24;;;;;;;;;;;3.90;94.30;;;;;;5095199;28;19943;-68
2021/12/03 07:30:50;;;;;;;;;;;3.90;94.40;;;;;;5088531;28;19951;-68
2021/12/03 07:33:17;;;;;;;;;;;3.90;94.40;;;;;;5088394;28;20292;-68
2021/12/03 07:35:45;;;;;;;;;;;3.90;94.40;;;;;;5101849;28;19965;-67
2021/12/03 07:38:11;;;;;;;;;;;3.90;94.30;;;;;;5089300;28;19909;-68
2021/12/03 07:40:36;;;;;;;;;;;3.90;94.30;;;;;;5097567;28;19916;-68
2021/12/03 07:43:02;;;;;;;;;;;3.90;94.30;;;;;;5083721;28;19938;-68
2021/12/03 07:45:28;;;;;;;;;;;3.90;94.40;;;;;;5087472;28;20292;-68
2021/12/03 07:47:53;;;;;;;;;;;3.90;94.30;;;;;;5094551;28;19912;-68
2021/12/03 07:50:19;;;;;;;;;;;3.90;94.40;;;;;;5091049;28;19999;-69
2021/12/03 07:52:44;;;;;;;;;;;4.00;94.40;;;;;;5091228;28;19922;-68
2021/12/03 07:55:10;;;;;;;;;;;4.00;94.40;;;;;;5090999;28;19958;-68
2021/12/03 07:57:36;;;;;;;;;;;3.90;94.30;;;;;;5092438;28;19916;-68
2021/12/03 08:00:02;;;;;;;;;;;4.00;94.40;;;;;;5094828;28;19977;-68
2021/12/03 08:02:27;;;;;;;;;;;4.00;94.40;;;;;;5094596;28;19915;-68
2021/12/03 08:04:53;;;;;;;;;;;4.00;94.40;;;;;;5092882;28;19999;-68
2021/12/03 08:07:19;;;;;;;;;;;4.00;94.30;;;;;;5098924;28;19908;-68
2021/12/03 08:09:45;;;;;;;;;;;4.00;94.30;;;;;;5092843;28;19924;-68
2021/12/03 08:12:10;;;;;;;;;;;4.00;94.40;;;;;;5114603;27;20693;-68
2021/12/03 08:14:36;;;;;;;;;;;4.00;94.40;;;;;;5092342;28;19943;-69
2021/12/03 08:17:01;;;;;;;;;;;4.00;94.30;;;;;;5093920;28;19952;-68
2021/12/03 08:19:27;;;;;;;;;;;4.00;94.30;;;;;;5097854;28;19960;-68
2021/12/03 08:21:52;;;;;;;;;;;4.00;94.30;;;;;;5098262;28;19915;-68
2021/12/03 08:24:18;;;;;;;;;;;4.00;94.30;;;;;;5093224;28;19913;-68
2021/12/03 08:26:43;;;;;;;;;;;4.00;94.30;;;;;;5102151;28;19916;-68
2021/12/03 08:29:10;;;;;;;;;;;4.10;94.30;;;;;;5092416;28;19916;-68
2021/12/03 08:31:37;;;;;;;;;;;4.10;94.30;;;;;;5091782;28;20302;-68
2021/12/03 08:34:02;;;;;;;;;;;4.00;94.30;;;;;;5091870;28;19931;-68
2021/12/03 08:36:28;;;;;;;;;;;4.10;94.60;;;;;;5094035;28;19924;-68
2021/12/03 08:38:53;;;;;;;;;;;4.10;94.30;;;;;;5090869;28;19920;-68
2021/12/03 08:41:19;;;;;;;;;;;4.10;94.40;;;;;;5095327;28;19912;-68
2021/12/03 08:43:46;;;;;;;;;;;4.10;94.20;;;;;;5095214;28;19916;-68
2021/12/03 08:46:17;;;;;;;;;;;4.10;94.20;;;;;;5093997;28;19920;-68
2021/12/03 08:48:46;;;;;;;;;;;4.10;94.30;;;;;;5097092;28;19951;-68
2021/12/03 08:51:35;;;;;;;;;;;4.10;94.20;;;;;;5091644;28;19956;-68
2021/12/03 08:56:44;;;;;;;;;;;4.10;94.20;;;;;;5097498;28;19938;-68
2021/12/03 08:59:09;;;;;;;;;;;4.20;94.20;;;;;;5092492;28;19916;-68
2021/12/03 09:01:35;;;;;;;;;;;4.20;94.20;;;;;;5084771;28;19908;-68
2021/12/03 09:04:00;;;;;;;;;;;4.20;94.20;;;;;;5090773;28;20377;-68
2021/12/03 09:06:27;;;;;;;;;;;4.20;94.20;;;;;;5084264;28;19947;-68
2021/12/03 09:08:52;;;;;;;;;;;4.30;94.10;;;;;;5092273;28;20319;-68
2021/12/03 09:11:18;;;;;;;;;;;4.30;94.10;;;;;;5090379;28;19912;-68
2021/12/03 09:13:46;;;;;;;;;;;4.20;94.10;;;;;;5092112;28;19924;-68
2021/12/03 09:16:16;;;;;;;;;;;4.30;94.10;;;;;;5087048;28;19916;-68
2021/12/03 09:18:44;;;;;;;;;;;4.30;94.10;;;;;;5093716;28;19969;-69
2021/12/03 09:21:15;;;;;;;;;;;;;;;;;;;;;
2021/12/03 09:23:59;;;;;;;;;;;4.30;94.10;;;;;;5093545;28;19908;-68
2021/12/03 09:26:26;;;;;;;;;;;4.30;94.00;;;;;;5089180;28;19927;-68
2021/12/03 09:28:59;;;;;;;;;;;4.30;94.10;;;;;;5098195;28;19908;-68
2021/12/03 09:31:24;;;;;;;;;;;4.30;93.90;;;;;;5090678;28;20414;-68
2021/12/03 09:33:50;;;;;;;;;;;4.30;94.00;;;;;;5106675;28;19912;-68
2021/12/03 09:36:16;;;;;;;;;;;4.30;93.80;;;;;;5094792;28;20407;-68
2021/12/03 09:38:41;;;;;;;;;;;4.30;94.00;;;;;;5093250;28;19947;-68
2021/12/03 09:41:15;;;;;;;;;;;4.40;94.00;;;;;;5092174;28;20296;-68
2021/12/03 09:43:43;;;;;;;;;;;4.40;94.00;;;;;;5086444;28;19920;-68
2021/12/03 09:46:15;;;;;;;;;;;4.40;94.00;;;;;;5091245;28;20328;-68
2021/12/03 09:51:23;;;;;;;;;;;4.40;93.80;;;;;;5095713;28;19912;-68
2021/12/03 09:56:14;;;;;;;;;;;4.50;93.90;;;;;;5092922;28;19919;-68
2021/12/03 09:59:16;;;;;;;;;;;4.40;93.70;;;;;;5087518;28;19922;-68
2021/12/03 10:01:48;;;;;;;;;;;4.50;93.90;;;;;;5093323;28;19998;-68
2021/12/03 10:04:35;;;;;;;;;;;4.40;93.80;;;;;;5091676;28;19923;-68
2021/12/03 10:15:58;;;;;;;;;;;4.50;93.80;;;;;;5087743;28;20445;-68
2021/12/03 10:20:32;;;;;;;;;;;;;;;;;;;;;
2021/12/03 10:37:14;;;;;;;;;;;4.70;93.70;;;;;;5090490;28;19956;-68
2021/12/03 10:45:27;;;;;;;;;;;4.70;93.60;;;;;;5082312;28;19916;-68
2021/12/03 10:48:23;;;;;;;;;;;4.70;93.50;;;;;;5088599;28;19912;-68
2021/12/03 10:51:04;;;;;;;;;;;4.70;93.30;;;;;;5087520;28;19912;-68
2021/12/03 10:53:35;;;;;;;;;;;4.70;93.40;;;;;;5088414;28;19947;-68
2021/12/03 10:56:30;;;;;;;;;;;4.80;93.40;;;;;;5085393;28;19941;-68
2021/12/03 13:13:44;;;;;;;;;;;5.20;93.00;;;;;;5095361;28;19923;-68
2021/12/03 13:41:34;;;;;;;;;;;5.30;92.80;;;;;;5093592;28;20011;-68
2021/12/03 13:45:06;;;;;;;;;;;5.20;92.80;;;;;;5093284;28;19912;-68
2021/12/03 14:42:54;;;;;;;;;;;5.20;92.90;;;;;;5088083;28;19912;-68
2021/12/03 14:45:29;;;;;;;;;;;5.20;92.80;;;;;;5095360;28;20376;-69
2021/12/03 14:56:07;;;;;;;;;;;5.20;92.80;;;;;;5090796;28;19918;-69
2021/12/03 15:19:28;;;;;;;;;;;5.10;92.70;;;;;;5088015;28;19926;-68
2021/12/03 15:22:07;;;;;;;;;;;5.10;92.90;;;;;;5094841;28;20368;-68
2021/12/03 15:33:13;;;;;;;;;;;5.00;93.00;;;;;;5084186;28;19912;-68
2021/12/03 15:35:22;;;;;;;;;;;5.00;92.90;;;;;;5084973;28;19915;-68
2021/12/03 15:38:08;;;;;;;;;;;;;;;;;;;;;
2021/12/03 16:04:52;;;;;;;;;;;4.90;93.20;;;;;;5087936;28;20429;-68
2021/12/03 16:10:22;;;;;;;;;;;4.90;93.30;;;;;;5092860;28;19961;-68
2021/12/03 16:16:27;;;;;;;;;;;4.90;93.20;;;;;;5102043;28;19923;-68
2021/12/03 16:45:44;;;;;;;;;;;4.70;93.40;;;;;;5097660;28;20032;-68
2021/12/03 16:53:30;;;;;;;;;;;4.80;93.50;;;;;;5100868;28;20591;-68
2021/12/03 16:56:03;;;;;;;;;;;4.70;93.50;;;;;;5096576;28;19990;-69
2021/12/03 16:58:29;;;;;;;;;;;4.70;93.60;;;;;;5090851;28;19912;-68
2021/12/03 17:03:49;;;;;;;;;;;4.70;93.50;;;;;;5069338;28;20011;-68
2021/12/03 17:09:12;;;;;;;;;;;4.80;93.60;;;;;;5092038;28;19939;-68
2021/12/03 17:12:08;;;;;;;;;;;4.70;93.60;;;;;;5090315;28;19908;-68
2021/12/03 17:44:31;;;;;;;;;;;4.70;93.60;;;;;;5091558;28;20323;-68
2021/12/03 17:49:28;;;;;;;;;;;4.70;93.70;;;;;;5092179;28;20401;-70
2021/12/03 17:59:58;;;;;;;;;;;4.60;93.70;;;;;;5094783;28;20365;-70
2021/12/03 18:02:45;;;;;;;;;;;4.70;93.70;;;;;;5093236;28;19922;-70
2021/12/03 18:45:06;;;;;;;;;;;4.60;93.80;;;;;;5088464;28;19926;-68
2021/12/03 18:53:18;;;;;;;;;;;4.60;93.80;;;;;;5087777;28;19919;-68
2021/12/03 18:55:51;;;;;;;;;;;4.60;93.70;;;;;;5091819;28;19919;-68
2021/12/03 18:58:18;;;;;;;;;;;4.60;93.80;;;;;;5089599;28;19923;-68
2021/12/03 19:00:45;;;;;;;;;;;4.60;93.70;;;;;;5087365;28;19981;-68
2021/12/03 19:08:08;;;;;;;;;;;4.60;93.80;;;;;;5089515;28;20510;-68
2021/12/03 19:10:40;;;;;;;;;;;4.60;93.80;;;;;;5093595;28;19935;-68
2021/12/03 19:13:10;;;;;;;;;;;4.60;93.80;;;;;;5087791;28;19908;-68
2021/12/03 19:15:36;;;;;;;;;;;4.60;93.70;;;;;;5085314;28;20038;-68
2021/12/03 19:18:03;;;;;;;;;;;4.60;93.70;;;;;;5093748;28;20294;-68
2021/12/03 19:20:32;;;;;;;;;;;4.60;93.80;;;;;;5087314;28;19931;-68
2021/12/03 19:22:58;;;;;;;;;;;4.60;93.80;;;;;;5083764;28;19916;-68
2021/12/03 19:25:24;;;;;;;;;;;4.60;93.80;;;;;;5082857;28;20345;-68
2021/12/03 19:27:49;;;;;;;;;;;4.60;93.80;;;;;;5092471;28;19918;-68
2021/12/03 19:30:15;;;;;;;;;;;4.60;93.80;;;;;;5084404;28;19916;-68
2021/12/03 19:32:41;;;;;;;;;;;4.60;93.80;;;;;;5086213;28;19919;-68
2021/12/03 19:35:08;;;;;;;;;;;4.60;93.80;;;;;;5082207;28;20597;-68
2021/12/03 19:37:34;;;;;;;;;;;4.60;93.80;;;;;;5078605;28;19912;-68
2021/12/03 19:40:04;;;;;;;;;;;4.60;93.80;;;;;;5087768;28;19915;-68
2021/12/03 19:42:36;;;;;;;;;;;4.60;93.80;;;;;;5091599;28;19923;-68
2021/12/03 19:45:04;;;;;;;;;;;4.60;93.80;;;;;;5086159;28;19974;-68
2021/12/03 19:50:34;;;;;;;;;;;4.60;93.80;;;;;;5094279;28;19965;-68
2021/12/03 19:53:08;;;;;;;;;;;4.60;93.80;;;;;;5089798;28;20401;-68
2021/12/03 19:55:37;;;;;;;;;;;4.60;93.80;;;;;;5089029;28;19922;-68
2021/12/03 19:58:03;;;;;;;;;;;4.60;93.80;;;;;;5090155;28;20659;-68
2021/12/03 20:00:29;;;;;;;;;;;4.60;93.80;;;;;;5087444;28;19916;-68
2021/12/03 20:02:54;;;;;;;;;;;4.60;93.80;;;;;;5088547;28;20406;-68
2021/12/03 20:05:20;;;;;;;;;;;4.60;93.80;;;;;;5086469;28;19924;-68
2021/12/03 20:07:47;;;;;;;;;;;4.60;93.80;;;;;;5094114;28;19915;-70
2021/12/03 20:10:18;;;;;;;;;;;4.60;93.80;;;;;;5094032;28;20277;-71
2021/12/03 20:12:46;;;;;;;;;;;4.60;93.70;;;;;;5099042;28;19954;-71
2021/12/03 20:15:19;;;;;;;;;;;4.60;93.80;;;;;;5091568;28;19912;-71
2021/12/03 20:17:52;;;;;;;;;;;4.70;93.80;;;;;;5093697;28;19986;-70
2021/12/03 20:20:18;;;;;;;;;;;4.60;93.80;;;;;;5093941;28;19918;-70
2021/12/03 20:27:44;;;;;;;;;;;4.60;93.80;;;;;;5081594;28;19916;-68
2021/12/03 20:30:15;;;;;;;;;;;4.60;93.80;;;;;;5085331;28;19909;-68
2021/12/03 20:32:59;;;;;;;;;;;4.60;93.80;;;;;;5084384;28;20299;-68
2021/12/03 20:38:13;;;;;;;;;;;4.60;93.80;;;;;;5058057;28;19943;-68
2021/12/03 20:40:38;;;;;;;;;;;4.60;93.80;;;;;;5084383;28;19908;-68
2021/12/03 20:50:42;;;;;;;;;;;4.60;93.80;;;;;;5097257;28;19947;-69
2021/12/03 21:09:16;;;;;;;;;;;4.60;93.80;;;;;;5090371;28;20608;-68
2021/12/03 21:11:47;;;;;;;;;;;4.70;93.80;;;;;;5092170;28;20006;-68
2021/12/03 21:14:24;;;;;;;;;;;4.60;93.70;;;;;;5093011;28;19998;-68
2021/12/03 21:19:38;;;;;;;;;;;4.70;93.80;;;;;;5095667;28;19912;-68
2021/12/03 21:24:38;;;;;;;;;;;4.70;93.80;;;;;;5089416;28;19920;-68
2021/12/03 21:27:10;;;;;;;;;;;4.70;93.80;;;;;;5090298;28;19912;-68
2021/12/03 21:32:20;;;;;;;;;;;4.70;93.80;;;;;;5087298;28;20293;-68
2021/12/03 21:42:40;;;;;;;;;;;4.60;93.80;;;;;;5087304;28;19920;-70
2021/12/03 21:45:06;;;;;;;;;;;4.70;93.80;;;;;;5081897;28;19925;-70
2021/12/03 21:47:31;;;;;;;;;;;4.60;93.80;;;;;;5088489;28;19915;-70
2021/12/03 21:49:57;;;;;;;;;;;4.70;93.80;;;;;;5085334;28;19912;-70
2021/12/03 21:52:24;;;;;;;;;;;4.70;93.80;;;;;;5088928;27;19958;-71
2021/12/03 21:54:51;;;;;;;;;;;4.70;93.80;;;;;;5084439;28;19919;-71
2021/12/03 21:57:17;;;;;;;;;;;4.70;93.80;;;;;;5092884;28;19912;-71
2021/12/03 21:59:42;;;;;;;;;;;4.70;93.80;;;;;;5092289;27;19921;-68
2021/12/03 22:02:09;;;;;;;;;;;4.70;93.80;;;;;;5084374;28;20007;-68
2021/12/03 22:04:34;;;;;;;;;;;4.70;93.80;;;;;;5082227;28;19949;-68
2021/12/03 22:07:01;;;;;;;;;;;4.70;93.80;;;;;;5085629;28;19909;-69
2021/12/03 22:09:26;;;;;;;;;;;4.70;93.90;;;;;;5085694;28;19920;-68
2021/12/03 22:11:53;;;;;;;;;;;4.70;93.80;;;;;;5088540;28;19923;-68
2021/12/03 22:14:19;;;;;;;;;;;4.70;93.90;;;;;;5088245;28;19955;-68
2021/12/03 22:16:44;;;;;;;;;;;4.70;93.80;;;;;;5086023;28;19953;-68
2021/12/03 22:19:10;;;;;;;;;;;4.70;93.80;;;;;;5087928;28;19916;-68
2021/12/03 22:21:35;;;;;;;;;;;4.70;93.80;;;;;;5083047;28;20344;-69
2021/12/03 22:24:01;;;;;;;;;;;4.70;93.80;;;;;;5090143;28;20399;-68
2021/12/03 22:26:26;;;;;;;;;;;4.70;93.80;;;;;;5081503;28;19968;-70
2021/12/03 22:28:53;;;;;;;;;;;4.70;93.80;;;;;;5092897;28;19956;-71
2021/12/03 22:31:18;;;;;;;;;;;4.70;93.80;;;;;;5082847;28;19955;-71
2021/12/03 22:33:44;;;;;;;;;;;4.70;93.80;;;;;;5088203;28;19959;-70
2021/12/03 22:36:10;;;;;;;;;;;4.70;93.80;;;;;;5078235;28;19928;-70
2021/12/03 22:38:36;;;;;;;;;;;4.70;93.80;;;;;;5092276;28;19915;-71
2021/12/03 22:41:03;;;;;;;;;;;4.70;93.80;;;;;;5081071;28;19913;-70
2021/12/03 22:43:32;;;;;;;;;;;4.70;93.80;;;;;;5079319;28;19918;-68
2021/12/03 22:51:00;;;;;;;;;;;4.70;93.80;;;;;;5083555;28;19928;-68
2021/12/03 22:53:25;;;;;;;;;;;4.70;93.80;;;;;;5080637;28;19973;-68
2021/12/03 22:55:51;;;;;;;;;;;4.70;93.90;;;;;;5104497;27;20297;-68
2021/12/03 22:58:17;;;;;;;;;;;4.70;93.90;;;;;;5078999;28;20003;-68
2021/12/03 23:01:03;;;;;;;;;;;4.70;93.80;;;;;;5087474;28;19957;-68
2021/12/03 23:03:29;;;;;;;;;;;4.70;93.90;;;;;;5083485;28;20382;-68